sensor_id;sensor_type;location;lat;lon;timestamp;P1;durP1;ratioP1;P2;durP2;ratioP2
12597;SDS011;6364;53.590;9.956;2022-09-21T00:01:03;16.45;;;5.05;;
12597;SDS011;6364;53.590;9.956;2022-09-21T00:03:52;9.02;;;4.25;;
12597;SDS011;6364;53.590;9.956;2022-09-21T00:06:18;8.88;;;4.40;;
12597;SDS011;6364;53.590;9.956;2022-09-21T00:08:45;17.15;;;4.70;;
12597;SDS011;6364;53.590;9.956;2022-09-21T00:11:14;11.52;;;4.90;;
12597;SDS011;6364;53.590;9.956;2022-09-21T00:13:41;6.88;;;4.10;;
12597;SDS011;6364;53.590;9.956;2022-09-21T00:16:10;12.05;;;4.20;;
12597;SDS011;6364;53.590;9.956;2022-09-21T00:18:36;10.43;;;4.65;;
12597;SDS011;6364;53.590;9.956;2022-09-21T00:21:06;12.38;;;4.90;;
12597;SDS011;6364;53.590;9.956;2022-09-21T00:23:33;8.75;;;4.70;;
12597;SDS011;6364;53.590;9.956;2022-09-21T00:26:19;12.80;;;4.32;;
12597;SDS011;6364;53.590;9.956;2022-09-21T00:28:46;12.60;;;4.25;;
12597;SDS011;6364;53.590;9.956;2022-09-21T00:31:12;10.68;;;4.63;;
12597;SDS011;6364;53.590;9.956;2022-09-21T00:33:40;13.60;;;4.63;;
12597;SDS011;6364;53.590;9.956;2022-09-21T00:36:07;10.38;;;4.13;;
12597;SDS011;6364;53.590;9.956;2022-09-21T00:38:34;11.35;;;4.75;;
12597;SDS011;6364;53.590;9.956;2022-09-21T00:41:00;12.57;;;4.88;;
12597;SDS011;6364;53.590;9.956;2022-09-21T00:43:25;13.15;;;4.65;;
12597;SDS011;6364;53.590;9.956;2022-09-21T00:45:53;14.88;;;4.80;;
12597;SDS011;6364;53.590;9.956;2022-09-21T00:48:23;16.33;;;4.77;;
12597;SDS011;6364;53.590;9.956;2022-09-21T00:50:50;12.02;;;4.32;;
12597;SDS011;6364;53.590;9.956;2022-09-21T00:53:17;11.00;;;4.60;;
12597;SDS011;6364;53.590;9.956;2022-09-21T00:55:44;11.55;;;4.60;;
12597;SDS011;6364;53.590;9.956;2022-09-21T00:58:13;12.13;;;4.35;;
12597;SDS011;6364;53.590;9.956;2022-09-21T01:00:40;8.95;;;4.53;;
12597;SDS011;6364;53.590;9.956;2022-09-21T01:03:06;10.93;;;5.43;;
12597;SDS011;6364;53.590;9.956;2022-09-21T01:05:33;11.35;;;5.72;;
12597;SDS011;6364;53.590;9.956;2022-09-21T01:07:59;14.43;;;5.95;;
12597;SDS011;6364;53.590;9.956;2022-09-21T01:10:25;11.07;;;4.80;;
12597;SDS011;6364;53.590;9.956;2022-09-21T01:18:17;11.73;;;4.57;;
12597;SDS011;6364;53.590;9.956;2022-09-21T01:21:05;12.95;;;5.15;;
12597;SDS011;6364;53.590;9.956;2022-09-21T01:26:39;14.05;;;5.03;;
12597;SDS011;6364;53.590;9.956;2022-09-21T01:32:12;9.68;;;5.20;;
12597;SDS011;6364;53.590;9.956;2022-09-21T01:34:47;16.52;;;5.53;;
12597;SDS011;6364;53.590;9.956;2022-09-21T01:37:20;12.90;;;5.30;;
12597;SDS011;6364;53.590;9.956;2022-09-21T01:39:49;13.50;;;5.38;;
12597;SDS011;6364;53.590;9.956;2022-09-21T01:42:18;14.77;;;5.85;;
12597;SDS011;6364;53.590;9.956;2022-09-21T01:44:44;11.30;;;5.57;;
12597;SDS011;6364;53.590;9.956;2022-09-21T01:47:10;10.85;;;5.47;;
12597;SDS011;6364;53.590;9.956;2022-09-21T01:49:40;12.30;;;4.80;;
12597;SDS011;6364;53.590;9.956;2022-09-21T01:52:11;12.45;;;5.05;;
12597;SDS011;6364;53.590;9.956;2022-09-21T01:54:44;8.70;;;5.05;;
12597;SDS011;6364;53.590;9.956;2022-09-21T02:00:15;16.00;;;5.32;;
12597;SDS011;6364;53.590;9.956;2022-09-21T02:05:11;13.10;;;5.88;;
12597;SDS011;6364;53.590;9.956;2022-09-21T02:07:37;12.63;;;5.55;;
12597;SDS011;6364;53.590;9.956;2022-09-21T02:10:04;13.40;;;6.07;;
12597;SDS011;6364;53.590;9.956;2022-09-21T02:12:32;12.23;;;5.65;;
12597;SDS011;6364;53.590;9.956;2022-09-21T02:14:57;9.88;;;5.40;;
12597;SDS011;6364;53.590;9.956;2022-09-21T02:22:34;12.32;;;5.50;;
12597;SDS011;6364;53.590;9.956;2022-09-21T02:25:12;8.68;;;5.25;;
12597;SDS011;6364;53.590;9.956;2022-09-21T02:30:18;10.75;;;4.93;;
12597;SDS011;6364;53.590;9.956;2022-09-21T02:40:55;9.05;;;5.13;;
12597;SDS011;6364;53.590;9.956;2022-09-21T02:43:44;10.60;;;5.22;;
12597;SDS011;6364;53.590;9.956;2022-09-21T02:46:26;11.43;;;5.57;;
12597;SDS011;6364;53.590;9.956;2022-09-21T02:48:59;10.43;;;5.35;;
12597;SDS011;6364;53.590;9.956;2022-09-21T02:51:31;13.80;;;5.18;;
12597;SDS011;6364;53.590;9.956;2022-09-21T02:53:59;9.63;;;5.25;;
12597;SDS011;6364;53.590;9.956;2022-09-21T02:56:27;13.38;;;5.50;;
12597;SDS011;6364;53.590;9.956;2022-09-21T02:58:55;14.77;;;5.88;;
12597;SDS011;6364;53.590;9.956;2022-09-21T03:01:23;14.07;;;5.82;;
12597;SDS011;6364;53.590;9.956;2022-09-21T03:03:49;11.65;;;5.63;;
12597;SDS011;6364;53.590;9.956;2022-09-21T03:06:15;9.63;;;5.55;;
12597;SDS011;6364;53.590;9.956;2022-09-21T03:08:40;12.20;;;5.57;;
12597;SDS011;6364;53.590;9.956;2022-09-21T03:11:06;7.80;;;5.03;;
12597;SDS011;6364;53.590;9.956;2022-09-21T03:13:31;7.35;;;5.57;;
12597;SDS011;6364;53.590;9.956;2022-09-21T03:16:00;12.20;;;5.95;;
12597;SDS011;6364;53.590;9.956;2022-09-21T03:18:27;10.50;;;5.20;;
12597;SDS011;6364;53.590;9.956;2022-09-21T03:20:52;12.18;;;5.75;;
12597;SDS011;6364;53.590;9.956;2022-09-21T03:23:17;15.43;;;6.22;;
12597;SDS011;6364;53.590;9.956;2022-09-21T03:25:43;13.82;;;5.40;;
12597;SDS011;6364;53.590;9.956;2022-09-21T03:28:12;15.48;;;5.45;;
12597;SDS011;6364;53.590;9.956;2022-09-21T03:30:39;9.82;;;5.63;;
12597;SDS011;6364;53.590;9.956;2022-09-21T03:33:04;9.20;;;5.35;;
12597;SDS011;6364;53.590;9.956;2022-09-21T03:35:30;6.65;;;4.65;;
12597;SDS011;6364;53.590;9.956;2022-09-21T03:37:57;8.10;;;4.57;;
12597;SDS011;6364;53.590;9.956;2022-09-21T03:40:23;8.23;;;5.18;;
12597;SDS011;6364;53.590;9.956;2022-09-21T03:42:50;11.20;;;5.45;;
12597;SDS011;6364;53.590;9.956;2022-09-21T03:45:15;9.85;;;5.40;;
12597;SDS011;6364;53.590;9.956;2022-09-21T03:47:41;12.73;;;6.50;;
12597;SDS011;6364;53.590;9.956;2022-09-21T03:50:07;11.95;;;5.90;;
12597;SDS011;6364;53.590;9.956;2022-09-21T03:52:32;16.67;;;5.65;;
12597;SDS011;6364;53.590;9.956;2022-09-21T03:54:58;10.25;;;5.25;;
12597;SDS011;6364;53.590;9.956;2022-09-21T03:57:23;11.52;;;5.80;;
12597;SDS011;6364;53.590;9.956;2022-09-21T03:59:49;12.50;;;5.32;;
12597;SDS011;6364;53.590;9.956;2022-09-21T04:02:14;11.20;;;5.47;;
12597;SDS011;6364;53.590;9.956;2022-09-21T04:04:40;10.68;;;5.32;;
12597;SDS011;6364;53.590;9.956;2022-09-21T04:07:06;13.23;;;6.72;;
12597;SDS011;6364;53.590;9.956;2022-09-21T04:09:31;20.33;;;6.60;;
12597;SDS011;6364;53.590;9.956;2022-09-21T04:11:56;15.27;;;6.95;;
12597;SDS011;6364;53.590;9.956;2022-09-21T04:14:22;25.17;;;7.00;;
12597;SDS011;6364;53.590;9.956;2022-09-21T04:16:47;19.85;;;6.63;;
12597;SDS011;6364;53.590;9.956;2022-09-21T04:19:13;21.98;;;7.78;;
12597;SDS011;6364;53.590;9.956;2022-09-21T04:21:38;25.60;;;7.72;;
12597;SDS011;6364;53.590;9.956;2022-09-21T04:24:04;22.90;;;7.90;;
12597;SDS011;6364;53.590;9.956;2022-09-21T04:26:30;23.08;;;8.45;;
12597;SDS011;6364;53.590;9.956;2022-09-21T04:28:57;18.88;;;7.22;;
12597;SDS011;6364;53.590;9.956;2022-09-21T04:31:23;22.40;;;8.05;;
12597;SDS011;6364;53.590;9.956;2022-09-21T04:33:50;21.23;;;9.07;;
12597;SDS011;6364;53.590;9.956;2022-09-21T04:36:16;21.25;;;9.18;;
12597;SDS011;6364;53.590;9.956;2022-09-21T04:38:42;21.48;;;7.90;;
12597;SDS011;6364;53.590;9.956;2022-09-21T04:41:09;21.38;;;8.40;;
12597;SDS011;6364;53.590;9.956;2022-09-21T04:43:34;14.82;;;8.13;;
12597;SDS011;6364;53.590;9.956;2022-09-21T04:46:03;19.17;;;8.60;;
12597;SDS011;6364;53.590;9.956;2022-09-21T04:48:30;15.82;;;8.25;;
12597;SDS011;6364;53.590;9.956;2022-09-21T04:50:55;20.05;;;8.60;;
12597;SDS011;6364;53.590;9.956;2022-09-21T04:53:20;12.75;;;8.52;;
12597;SDS011;6364;53.590;9.956;2022-09-21T04:55:46;11.70;;;7.53;;
12597;SDS011;6364;53.590;9.956;2022-09-21T04:58:11;21.25;;;8.57;;
12597;SDS011;6364;53.590;9.956;2022-09-21T05:00:36;12.73;;;8.65;;
12597;SDS011;6364;53.590;9.956;2022-09-21T05:03:02;11.98;;;7.63;;
12597;SDS011;6364;53.590;9.956;2022-09-21T05:05:27;14.38;;;9.00;;
12597;SDS011;6364;53.590;9.956;2022-09-21T05:07:52;13.10;;;8.32;;
12597;SDS011;6364;53.590;9.956;2022-09-21T05:10:18;13.90;;;8.57;;
12597;SDS011;6364;53.590;9.956;2022-09-21T05:12:43;11.85;;;8.40;;
12597;SDS011;6364;53.590;9.956;2022-09-21T05:15:09;15.82;;;9.25;;
12597;SDS011;6364;53.590;9.956;2022-09-21T05:17:37;12.70;;;9.35;;
12597;SDS011;6364;53.590;9.956;2022-09-21T05:20:02;14.45;;;8.55;;
12597;SDS011;6364;53.590;9.956;2022-09-21T05:22:28;12.30;;;8.65;;
12597;SDS011;6364;53.590;9.956;2022-09-21T05:24:53;15.02;;;8.45;;
12597;SDS011;6364;53.590;9.956;2022-09-21T05:27:19;17.92;;;9.70;;
12597;SDS011;6364;53.590;9.956;2022-09-21T05:29:45;16.85;;;9.32;;
12597;SDS011;6364;53.590;9.956;2022-09-21T05:32:23;17.45;;;9.65;;
12597;SDS011;6364;53.590;9.956;2022-09-21T05:40:10;16.25;;;9.32;;
12597;SDS011;6364;53.590;9.956;2022-09-21T05:42:36;16.70;;;9.27;;
12597;SDS011;6364;53.590;9.956;2022-09-21T05:45:02;17.35;;;9.60;;
12597;SDS011;6364;53.590;9.956;2022-09-21T05:50:12;16.70;;;9.73;;
12597;SDS011;6364;53.590;9.956;2022-09-21T05:56:02;15.45;;;9.77;;
12597;SDS011;6364;53.590;9.956;2022-09-21T06:01:32;22.13;;;10.50;;
12597;SDS011;6364;53.590;9.956;2022-09-21T06:04:02;19.20;;;10.85;;
12597;SDS011;6364;53.590;9.956;2022-09-21T06:06:28;17.02;;;10.43;;
12597;SDS011;6364;53.590;9.956;2022-09-21T06:08:53;17.90;;;10.68;;
12597;SDS011;6364;53.590;9.956;2022-09-21T06:11:19;23.45;;;12.00;;
12597;SDS011;6364;53.590;9.956;2022-09-21T06:13:45;18.23;;;11.65;;
12597;SDS011;6364;53.590;9.956;2022-09-21T06:16:10;23.42;;;11.80;;
12597;SDS011;6364;53.590;9.956;2022-09-21T06:18:39;17.92;;;11.43;;
12597;SDS011;6364;53.590;9.956;2022-09-21T06:21:05;26.40;;;13.45;;
12597;SDS011;6364;53.590;9.956;2022-09-21T06:23:31;23.25;;;12.60;;
12597;SDS011;6364;53.590;9.956;2022-09-21T06:25:56;29.33;;;14.20;;
12597;SDS011;6364;53.590;9.956;2022-09-21T06:28:21;27.50;;;14.63;;
12597;SDS011;6364;53.590;9.956;2022-09-21T06:30:50;36.25;;;15.45;;
12597;SDS011;6364;53.590;9.956;2022-09-21T06:33:16;30.35;;;15.70;;
12597;SDS011;6364;53.590;9.956;2022-09-21T06:35:50;34.88;;;14.68;;
12597;SDS011;6364;53.590;9.956;2022-09-21T06:38:19;32.00;;;15.57;;
12597;SDS011;6364;53.590;9.956;2022-09-21T06:40:44;39.70;;;17.88;;
12597;SDS011;6364;53.590;9.956;2022-09-21T06:43:10;32.38;;;16.13;;
12597;SDS011;6364;53.590;9.956;2022-09-21T06:45:35;34.33;;;16.67;;
12597;SDS011;6364;53.590;9.956;2022-09-21T06:48:00;39.50;;;17.98;;
12597;SDS011;6364;53.590;9.956;2022-09-21T06:50:26;41.72;;;16.73;;
12597;SDS011;6364;53.590;9.956;2022-09-21T06:52:51;30.50;;;16.60;;
12597;SDS011;6364;53.590;9.956;2022-09-21T06:55:16;38.50;;;17.98;;
12597;SDS011;6364;53.590;9.956;2022-09-21T06:57:42;39.33;;;18.40;;
12597;SDS011;6364;53.590;9.956;2022-09-21T07:00:08;32.83;;;17.65;;
12597;SDS011;6364;53.590;9.956;2022-09-21T07:02:34;35.83;;;18.75;;
12597;SDS011;6364;53.590;9.956;2022-09-21T07:05:00;34.58;;;18.60;;
12597;SDS011;6364;53.590;9.956;2022-09-21T07:07:26;36.47;;;18.98;;
12597;SDS011;6364;53.590;9.956;2022-09-21T07:09:54;34.95;;;18.92;;
12597;SDS011;6364;53.590;9.956;2022-09-21T07:12:19;34.78;;;19.52;;
12597;SDS011;6364;53.590;9.956;2022-09-21T07:14:45;43.25;;;19.65;;
12597;SDS011;6364;53.590;9.956;2022-09-21T07:17:10;37.33;;;19.25;;
12597;SDS011;6364;53.590;9.956;2022-09-21T07:19:36;35.78;;;18.83;;
12597;SDS011;6364;53.590;9.956;2022-09-21T07:22:01;39.70;;;19.48;;
12597;SDS011;6364;53.590;9.956;2022-09-21T07:24:26;36.58;;;21.15;;
12597;SDS011;6364;53.590;9.956;2022-09-21T07:26:52;33.33;;;18.42;;
12597;SDS011;6364;53.590;9.956;2022-09-21T07:29:18;43.22;;;20.13;;
12597;SDS011;6364;53.590;9.956;2022-09-21T07:31:43;35.47;;;18.95;;
12597;SDS011;6364;53.590;9.956;2022-09-21T07:34:09;35.20;;;18.02;;
12597;SDS011;6364;53.590;9.956;2022-09-21T07:36:34;34.17;;;19.00;;
12597;SDS011;6364;53.590;9.956;2022-09-21T07:38:59;30.30;;;18.35;;
12597;SDS011;6364;53.590;9.956;2022-09-21T07:41:25;32.85;;;16.38;;
12597;SDS011;6364;53.590;9.956;2022-09-21T07:43:51;33.28;;;17.20;;
12597;SDS011;6364;53.590;9.956;2022-09-21T07:46:17;29.48;;;16.30;;
12597;SDS011;6364;53.590;9.956;2022-09-21T07:48:42;33.17;;;18.05;;
12597;SDS011;6364;53.590;9.956;2022-09-21T07:51:09;28.38;;;16.77;;
12597;SDS011;6364;53.590;9.956;2022-09-21T07:53:36;30.50;;;15.95;;
12597;SDS011;6364;53.590;9.956;2022-09-21T07:56:07;31.48;;;14.80;;
12597;SDS011;6364;53.590;9.956;2022-09-21T07:58:34;23.80;;;14.60;;
12597;SDS011;6364;53.590;9.956;2022-09-21T08:01:18;27.00;;;14.70;;
12597;SDS011;6364;53.590;9.956;2022-09-21T08:03:44;24.60;;;13.73;;
12597;SDS011;6364;53.590;9.956;2022-09-21T08:06:09;21.23;;;12.30;;
12597;SDS011;6364;53.590;9.956;2022-09-21T08:08:35;21.92;;;11.43;;
12597;SDS011;6364;53.590;9.956;2022-09-21T08:11:04;21.15;;;10.65;;
12597;SDS011;6364;53.590;9.956;2022-09-21T08:13:29;19.00;;;10.68;;
12597;SDS011;6364;53.590;9.956;2022-09-21T08:15:56;18.58;;;10.50;;
12597;SDS011;6364;53.590;9.956;2022-09-21T08:18:25;27.77;;;11.52;;
12597;SDS011;6364;53.590;9.956;2022-09-21T08:20:57;20.60;;;10.40;;
12597;SDS011;6364;53.590;9.956;2022-09-21T08:23:24;17.58;;;10.00;;
12597;SDS011;6364;53.590;9.956;2022-09-21T08:25:56;17.67;;;9.32;;
12597;SDS011;6364;53.590;9.956;2022-09-21T08:28:22;19.65;;;9.25;;
12597;SDS011;6364;53.590;9.956;2022-09-21T08:30:49;14.98;;;8.88;;
12597;SDS011;6364;53.590;9.956;2022-09-21T08:33:14;16.23;;;8.52;;
12597;SDS011;6364;53.590;9.956;2022-09-21T08:35:40;14.60;;;7.50;;
12597;SDS011;6364;53.590;9.956;2022-09-21T08:38:05;13.18;;;7.78;;
12597;SDS011;6364;53.590;9.956;2022-09-21T08:40:31;15.13;;;7.43;;
12597;SDS011;6364;53.590;9.956;2022-09-21T08:42:58;9.55;;;5.18;;
12597;SDS011;6364;53.590;9.956;2022-09-21T08:45:32;8.32;;;4.60;;
12597;SDS011;6364;53.590;9.956;2022-09-21T08:48:00;9.48;;;4.68;;
12597;SDS011;6364;53.590;9.956;2022-09-21T08:50:29;10.70;;;4.63;;
12597;SDS011;6364;53.590;9.956;2022-09-21T08:53:09;10.85;;;3.90;;
12597;SDS011;6364;53.590;9.956;2022-09-21T08:55:39;7.70;;;2.67;;
12597;SDS011;6364;53.590;9.956;2022-09-21T08:58:12;5.60;;;3.03;;
12597;SDS011;6364;53.590;9.956;2022-09-21T09:00:45;4.75;;;2.80;;
12597;SDS011;6364;53.590;9.956;2022-09-21T09:03:23;8.73;;;3.70;;
12597;SDS011;6364;53.590;9.956;2022-09-21T09:13:45;7.55;;;2.70;;
12597;SDS011;6364;53.590;9.956;2022-09-21T09:19:19;7.80;;;2.50;;
12597;SDS011;6364;53.590;9.956;2022-09-21T09:21:48;5.97;;;2.80;;
12597;SDS011;6364;53.590;9.956;2022-09-21T09:26:45;11.00;;;3.10;;
12597;SDS011;6364;53.590;9.956;2022-09-21T09:29:17;7.03;;;2.60;;
12597;SDS011;6364;53.590;9.956;2022-09-21T09:31:44;6.43;;;2.40;;
12597;SDS011;6364;53.590;9.956;2022-09-21T09:34:12;3.78;;;2.17;;
12597;SDS011;6364;53.590;9.956;2022-09-21T09:36:42;3.72;;;2.63;;
12597;SDS011;6364;53.590;9.956;2022-09-21T09:39:14;4.95;;;2.38;;
12597;SDS011;6364;53.590;9.956;2022-09-21T09:53:04;4.03;;;2.40;;
12597;SDS011;6364;53.590;9.956;2022-09-21T09:55:37;7.03;;;2.55;;
12597;SDS011;6364;53.590;9.956;2022-09-21T09:58:04;7.68;;;2.90;;
12597;SDS011;6364;53.590;9.956;2022-09-21T10:00:35;4.32;;;2.50;;
12597;SDS011;6364;53.590;9.956;2022-09-21T10:03:05;8.85;;;2.60;;
12597;SDS011;6364;53.590;9.956;2022-09-21T10:05:40;6.50;;;2.58;;
12597;SDS011;6364;53.590;9.956;2022-09-21T10:08:13;4.85;;;2.20;;
12597;SDS011;6364;53.590;9.956;2022-09-21T10:10:51;4.20;;;1.60;;
12597;SDS011;6364;53.590;9.956;2022-09-21T10:13:30;4.25;;;1.52;;
12597;SDS011;6364;53.590;9.956;2022-09-21T10:16:04;4.20;;;1.65;;
12597;SDS011;6364;53.590;9.956;2022-09-21T10:18:35;2.78;;;1.70;;
12597;SDS011;6364;53.590;9.956;2022-09-21T10:21:07;2.95;;;1.50;;
12597;SDS011;6364;53.590;9.956;2022-09-21T10:23:33;1.50;;;1.40;;
12597;SDS011;6364;53.590;9.956;2022-09-21T10:26:04;6.70;;;1.58;;
12597;SDS011;6364;53.590;9.956;2022-09-21T10:28:33;2.33;;;1.53;;
12597;SDS011;6364;53.590;9.956;2022-09-21T10:31:18;3.40;;;1.30;;
12597;SDS011;6364;53.590;9.956;2022-09-21T10:33:48;3.97;;;1.55;;
12597;SDS011;6364;53.590;9.956;2022-09-21T10:36:32;2.65;;;1.13;;
12597;SDS011;6364;53.590;9.956;2022-09-21T10:39:20;2.20;;;1.40;;
12597;SDS011;6364;53.590;9.956;2022-09-21T10:41:46;2.17;;;1.02;;
12597;SDS011;6364;53.590;9.956;2022-09-21T10:50:06;2.00;;;1.15;;
12597;SDS011;6364;53.590;9.956;2022-09-21T10:52:44;2.70;;;1.30;;
12597;SDS011;6364;53.590;9.956;2022-09-21T10:55:17;2.13;;;1.08;;
12597;SDS011;6364;53.590;9.956;2022-09-21T10:57:43;2.35;;;1.38;;
12597;SDS011;6364;53.590;9.956;2022-09-21T11:02:53;2.47;;;1.30;;
12597;SDS011;6364;53.590;9.956;2022-09-21T11:05:24;3.10;;;1.33;;
12597;SDS011;6364;53.590;9.956;2022-09-21T11:10:27;5.53;;;1.23;;
12597;SDS011;6364;53.590;9.956;2022-09-21T11:21:12;1.00;;;0.80;;
12597;SDS011;6364;53.590;9.956;2022-09-21T11:26:30;1.80;;;1.20;;
12597;SDS011;6364;53.590;9.956;2022-09-21T11:29:21;2.83;;;1.33;;
12597;SDS011;6364;53.590;9.956;2022-09-21T11:37:17;4.70;;;1.20;;
12597;SDS011;6364;53.590;9.956;2022-09-21T11:40:02;6.15;;;1.30;;
12597;SDS011;6364;53.590;9.956;2022-09-21T11:48:35;2.80;;;1.30;;
12597;SDS011;6364;53.590;9.956;2022-09-21T11:51:21;6.47;;;1.55;;
12597;SDS011;6364;53.590;9.956;2022-09-21T11:54:30;3.15;;;1.30;;
12597;SDS011;6364;53.590;9.956;2022-09-21T12:00:55;3.25;;;1.52;;
12597;SDS011;6364;53.590;9.956;2022-09-21T12:06:29;2.92;;;1.63;;
12597;SDS011;6364;53.590;9.956;2022-09-21T12:14:55;3.08;;;2.08;;
12597;SDS011;6364;53.590;9.956;2022-09-21T12:23:13;4.00;;;1.90;;
12597;SDS011;6364;53.590;9.956;2022-09-21T12:25:45;2.70;;;1.80;;
12597;SDS011;6364;53.590;9.956;2022-09-21T12:28:18;3.67;;;1.83;;
12597;SDS011;6364;53.590;9.956;2022-09-21T12:30:48;2.55;;;1.85;;
12597;SDS011;6364;53.590;9.956;2022-09-21T12:38:44;1.98;;;1.50;;
12597;SDS011;6364;53.590;9.956;2022-09-21T12:41:26;3.10;;;1.95;;
12597;SDS011;6364;53.590;9.956;2022-09-21T12:44:19;2.90;;;1.67;;
12597;SDS011;6364;53.590;9.956;2022-09-21T12:46:50;2.40;;;1.77;;
12597;SDS011;6364;53.590;9.956;2022-09-21T12:49:25;4.05;;;2.03;;
12597;SDS011;6364;53.590;9.956;2022-09-21T12:51:54;4.25;;;1.83;;
12597;SDS011;6364;53.590;9.956;2022-09-21T12:54:27;4.10;;;1.50;;
12597;SDS011;6364;53.590;9.956;2022-09-21T12:59:36;3.38;;;1.65;;
12597;SDS011;6364;53.590;9.956;2022-09-21T13:12:53;4.20;;;1.60;;
12597;SDS011;6364;53.590;9.956;2022-09-21T13:15:25;1.40;;;1.27;;
12597;SDS011;6364;53.590;9.956;2022-09-21T13:17:58;1.95;;;1.45;;
12597;SDS011;6364;53.590;9.956;2022-09-21T13:22:56;3.57;;;1.67;;
12597;SDS011;6364;53.590;9.956;2022-09-21T13:25:23;2.73;;;1.67;;
12597;SDS011;6364;53.590;9.956;2022-09-21T13:40:51;1.65;;;1.30;;
12597;SDS011;6364;53.590;9.956;2022-09-21T13:43:22;3.38;;;1.55;;
12597;SDS011;6364;53.590;9.956;2022-09-21T13:45:49;2.25;;;1.20;;
12597;SDS011;6364;53.590;9.956;2022-09-21T13:48:18;2.13;;;1.15;;
12597;SDS011;6364;53.590;9.956;2022-09-21T13:50:49;2.67;;;1.38;;
12597;SDS011;6364;53.590;9.956;2022-09-21T13:55:53;1.52;;;1.02;;
12597;SDS011;6364;53.590;9.956;2022-09-21T14:00:56;3.37;;;1.50;;
12597;SDS011;6364;53.590;9.956;2022-09-21T14:03:24;1.65;;;1.15;;
12597;SDS011;6364;53.590;9.956;2022-09-21T14:05:53;1.50;;;1.20;;
12597;SDS011;6364;53.590;9.956;2022-09-21T14:08:25;2.95;;;1.35;;
12597;SDS011;6364;53.590;9.956;2022-09-21T14:13:33;2.13;;;1.25;;
12597;SDS011;6364;53.590;9.956;2022-09-21T14:18:58;1.38;;;0.90;;
12597;SDS011;6364;53.590;9.956;2022-09-21T14:21:24;1.45;;;0.80;;
12597;SDS011;6364;53.590;9.956;2022-09-21T14:26:35;0.80;;;0.60;;
12597;SDS011;6364;53.590;9.956;2022-09-21T14:31:51;1.85;;;1.25;;
12597;SDS011;6364;53.590;9.956;2022-09-21T14:34:19;1.58;;;1.30;;
12597;SDS011;6364;53.590;9.956;2022-09-21T14:36:48;2.13;;;1.25;;
12597;SDS011;6364;53.590;9.956;2022-09-21T14:39:16;3.47;;;1.00;;
12597;SDS011;6364;53.590;9.956;2022-09-21T14:41:44;2.85;;;1.23;;
12597;SDS011;6364;53.590;9.956;2022-09-21T14:44:16;2.25;;;1.08;;
12597;SDS011;6364;53.590;9.956;2022-09-21T14:49:31;3.72;;;1.00;;
12597;SDS011;6364;53.590;9.956;2022-09-21T14:52:03;1.90;;;1.02;;
12597;SDS011;6364;53.590;9.956;2022-09-21T14:54:47;2.35;;;1.08;;
12597;SDS011;6364;53.590;9.956;2022-09-21T15:00:07;2.65;;;1.30;;
12597;SDS011;6364;53.590;9.956;2022-09-21T15:02:38;6.25;;;1.15;;
12597;SDS011;6364;53.590;9.956;2022-09-21T15:11:25;2.50;;;1.10;;
12597;SDS011;6364;53.590;9.956;2022-09-21T15:18:47;1.80;;;0.80;;
12597;SDS011;6364;53.590;9.956;2022-09-21T15:21:21;1.20;;;1.00;;
12597;SDS011;6364;53.590;9.956;2022-09-21T15:23:48;2.30;;;0.80;;
12597;SDS011;6364;53.590;9.956;2022-09-21T15:26:16;1.77;;;0.73;;
12597;SDS011;6364;53.590;9.956;2022-09-21T15:28:45;2.78;;;1.05;;
12597;SDS011;6364;53.590;9.956;2022-09-21T15:31:14;1.92;;;0.85;;
12597;SDS011;6364;53.590;9.956;2022-09-21T15:33:40;2.15;;;1.02;;
12597;SDS011;6364;53.590;9.956;2022-09-21T15:36:10;1.52;;;1.00;;
12597;SDS011;6364;53.590;9.956;2022-09-21T15:38:36;2.10;;;1.75;;
12597;SDS011;6364;53.590;9.956;2022-09-21T15:41:03;3.95;;;1.23;;
12597;SDS011;6364;53.590;9.956;2022-09-21T15:43:29;3.75;;;1.25;;
12597;SDS011;6364;53.590;9.956;2022-09-21T15:45:59;2.05;;;1.10;;
12597;SDS011;6364;53.590;9.956;2022-09-21T15:51:09;3.67;;;0.80;;
12597;SDS011;6364;53.590;9.956;2022-09-21T15:53:39;1.50;;;0.80;;
12597;SDS011;6364;53.590;9.956;2022-09-21T15:56:15;6.38;;;0.90;;
12597;SDS011;6364;53.590;9.956;2022-09-21T15:58:42;3.65;;;1.00;;
12597;SDS011;6364;53.590;9.956;2022-09-21T16:01:13;1.25;;;0.88;;
12597;SDS011;6364;53.590;9.956;2022-09-21T16:03:40;1.75;;;1.20;;
12597;SDS011;6364;53.590;9.956;2022-09-21T16:06:25;2.63;;;0.93;;
12597;SDS011;6364;53.590;9.956;2022-09-21T16:08:52;2.75;;;1.10;;
12597;SDS011;6364;53.590;9.956;2022-09-21T16:13:58;3.72;;;1.90;;
12597;SDS011;6364;53.590;9.956;2022-09-21T16:22:37;3.65;;;0.90;;
12597;SDS011;6364;53.590;9.956;2022-09-21T16:35:54;2.25;;;1.10;;
12597;SDS011;6364;53.590;9.956;2022-09-21T16:38:21;2.13;;;0.90;;
12597;SDS011;6364;53.590;9.956;2022-09-21T16:40:47;4.55;;;0.93;;
12597;SDS011;6364;53.590;9.956;2022-09-21T16:43:15;2.72;;;0.80;;
12597;SDS011;6364;53.590;9.956;2022-09-21T16:45:41;2.08;;;1.05;;
12597;SDS011;6364;53.590;9.956;2022-09-21T16:48:08;1.42;;;0.82;;
12597;SDS011;6364;53.590;9.956;2022-09-21T16:50:34;2.20;;;0.95;;
12597;SDS011;6364;53.590;9.956;2022-09-21T16:52:59;2.92;;;1.30;;
12597;SDS011;6364;53.590;9.956;2022-09-21T16:55:24;2.78;;;1.40;;
12597;SDS011;6364;53.590;9.956;2022-09-21T16:57:50;2.30;;;1.20;;
12597;SDS011;6364;53.590;9.956;2022-09-21T17:00:16;3.63;;;0.95;;
12597;SDS011;6364;53.590;9.956;2022-09-21T17:02:46;4.18;;;1.10;;
12597;SDS011;6364;53.590;9.956;2022-09-21T17:05:12;1.55;;;0.90;;
12597;SDS011;6364;53.590;9.956;2022-09-21T17:07:53;3.10;;;1.05;;
12597;SDS011;6364;53.590;9.956;2022-09-21T17:10:20;3.22;;;0.77;;
12597;SDS011;6364;53.590;9.956;2022-09-21T17:12:51;2.35;;;1.00;;
12597;SDS011;6364;53.590;9.956;2022-09-21T17:15:17;3.58;;;1.10;;
12597;SDS011;6364;53.590;9.956;2022-09-21T17:17:44;1.75;;;1.10;;
12597;SDS011;6364;53.590;9.956;2022-09-21T17:20:51;3.22;;;1.02;;
12597;SDS011;6364;53.590;9.956;2022-09-21T17:22:57;2.67;;;1.30;;
12597;SDS011;6364;53.590;9.956;2022-09-21T17:25:23;3.88;;;1.55;;
12597;SDS011;6364;53.590;9.956;2022-09-21T17:27:48;3.78;;;1.77;;
12597;SDS011;6364;53.590;9.956;2022-09-21T17:30:13;5.20;;;2.30;;
12597;SDS011;6364;53.590;9.956;2022-09-21T17:32:42;4.18;;;1.90;;
12597;SDS011;6364;53.590;9.956;2022-09-21T17:37:56;5.13;;;2.13;;
12597;SDS011;6364;53.590;9.956;2022-09-21T17:40:22;3.92;;;2.13;;
12597;SDS011;6364;53.590;9.956;2022-09-21T17:42:49;7.97;;;3.08;;
12597;SDS011;6364;53.590;9.956;2022-09-21T17:48:01;3.85;;;2.80;;
12597;SDS011;6364;53.590;9.956;2022-09-21T17:50:27;3.88;;;2.83;;
12597;SDS011;6364;53.590;9.956;2022-09-21T17:52:53;4.13;;;3.17;;
12597;SDS011;6364;53.590;9.956;2022-09-21T17:55:39;4.47;;;2.38;;
12597;SDS011;6364;53.590;9.956;2022-09-21T17:58:24;4.20;;;2.28;;
12597;SDS011;6364;53.590;9.956;2022-09-21T18:01:28;5.75;;;2.40;;
12597;SDS011;6364;53.590;9.956;2022-09-21T18:03:56;5.15;;;2.35;;
12597;SDS011;6364;53.590;9.956;2022-09-21T18:06:21;5.55;;;2.30;;
12597;SDS011;6364;53.590;9.956;2022-09-21T18:08:47;6.28;;;2.50;;
12597;SDS011;6364;53.590;9.956;2022-09-21T18:25:08;8.20;;;4.38;;
12597;SDS011;6364;53.590;9.956;2022-09-21T18:27:39;9.32;;;4.03;;
12597;SDS011;6364;53.590;9.956;2022-09-21T18:30:05;12.07;;;3.92;;
12597;SDS011;6364;53.590;9.956;2022-09-21T18:32:38;6.32;;;4.20;;
12597;SDS011;6364;53.590;9.956;2022-09-21T18:35:16;10.20;;;3.97;;
12597;SDS011;6364;53.590;9.956;2022-09-21T18:37:56;8.85;;;4.07;;
12597;SDS011;6364;53.590;9.956;2022-09-21T18:46:04;10.02;;;5.13;;
12597;SDS011;6364;53.590;9.956;2022-09-21T18:48:48;8.27;;;5.40;;
12597;SDS011;6364;53.590;9.956;2022-09-21T18:51:26;9.13;;;5.40;;
12597;SDS011;6364;53.590;9.956;2022-09-21T18:53:55;9.13;;;5.25;;
12597;SDS011;6364;53.590;9.956;2022-09-21T18:56:22;7.88;;;4.90;;
12597;SDS011;6364;53.590;9.956;2022-09-21T18:58:51;7.68;;;4.85;;
12597;SDS011;6364;53.590;9.956;2022-09-21T19:01:17;7.90;;;5.05;;
12597;SDS011;6364;53.590;9.956;2022-09-21T19:03:46;10.18;;;5.45;;